Toyofukumaru — JD2177 — position and weather

sailwx.info

Track history (hours):
 
Tides and Currents Weather Stations Pressure Air Temp Water Temp Dewpoint Dewpoint Depression Visibility Wind Speed Wind Dir Waves Ship Positions

Toyofukumaru

Last reported at 2017-Aug-12 23:46 UTC. Time now 2017-Aug-17 23:21 UTC.
Position N 34°33' E 134°45'.

Length 165 m; draft 6.2 m.

Type: Cargo ship. MMSI: 431200688.

Date/timePositionNaut miles runAvg speedWind from/ knotsBaromVisibWave heightAir tempDewpointWater temp
2017-Aug-12 23:46N 34°33' E 134°45'520.8
2017-Aug-12 23:30N 34°35' E 134°51'816.2
2017-Aug-12 23:00N 34°38' E 135°01'611.9
2017-Aug-12 22:30N 34°33' E 135°05'1020.1
2017-Aug-12 22:00N 34°23' E 135°01'918.4
2017-Aug-12 21:30N 34°14' E 134°59'918.7
2017-Aug-12 21:00N 34°05' E 134°60'216 7.3
2017-Aug-11 15:23N 34°46' E 139°17'821.0
2017-Aug-11 15:00N 34°52' E 139°23'2120.8
2017-Aug-11 14:01N 35°06' E 139°42'816.7
2017-Aug-11 13:31N 35°13' E 139°46'713.3
2017-Aug-11 13:00N 35°19' E 139°43'510.4
2017-Aug-11 12:30N 35°23' E 139°39'0 0.0
2017-Aug-11 11:58N 35°23' E 139°39'0 0.0
2017-Aug-11 11:28N 35°23' E 139°39'0 0.0
2017-Aug-11 10:58N 35°23' E 139°39'0 0.0
2017-Aug-11 10:28N 35°23' E 139°39'0 0.0
2017-Aug-11 09:58N 35°23' E 139°39'0 0.0
2017-Aug-11 09:28N 35°23' E 139°39'0 0.0
2017-Aug-11 08:58N 35°23' E 139°39'0 0.0
2017-Aug-11 08:28N 35°23' E 139°39'0 0.0
2017-Aug-11 07:58N 35°23' E 139°39'0 0.0
2017-Aug-11 07:28N 35°23' E 139°39'0 0.0
2017-Aug-11 06:58N 35°23' E 139°39'0 0.0
2017-Aug-11 06:28N 35°23' E 139°39'0 0.0
2017-Aug-11 05:58N 35°23' E 139°39'0 0.0
2017-Aug-11 05:28N 35°23' E 139°39'0 0.0
2017-Aug-11 05:00N 35°23' E 139°39'3 6.3
2017-Aug-11 04:30N 35°24' E 139°43'1020.1
2017-Aug-11 04:00N 35°30' E 139°52'918.6
2017-Aug-11 03:30N 35°35' E 140°03'3 0.4
2017-Aug-10 20:49N 35°36' E 140°05'0 0.0
2017-Aug-10 20:25N 35°36' E 140°05'2 5.2
2017-Aug-10 20:00N 35°35' E 140°03'1019.4
2017-Aug-10 19:30N 35°30' E 139°53'816.1
2017-Aug-10 19:01N 35°24' E 139°46'612.3
2017-Aug-10 18:31N 35°18' E 139°45'612.2
2017-Aug-10 18:00N 35°12' E 139°47'918.1
2017-Aug-10 17:30N 35°05' E 139°40'1019.7
2017-Aug-10 17:00N 34°58' E 139°31'233 7.1
2017-Aug-09 08:22N 33°48' E 135°02'718.5
2017-Aug-09 08:00N 33°54' E 134°59'919.3
2017-Aug-09 07:30N 34°03' E 134°58'1020.7
2017-Aug-09 07:00N 34°14' E 134°58'1020.5
2017-Aug-09 06:30N 34°24' E 134°60'1020.3
2017-Aug-09 06:00N 34°34' E 135°03'917.6
2017-Aug-09 05:30N 34°34' E 134°52'  
2017-Aug-05 00:59N 34°36' E 134°54'816.5
2017-Aug-05 00:30N 34°36' E 135°03'918.1
2017-Aug-05 00:00N 34°27' E 135°03'1020.1
2017-Aug-04 23:30N 34°17' E 134°59'1020.0
2017-Aug-04 23:00N 34°08' E 135°00'1019.7
2017-Aug-04 22:29N 33°57' E 135°01'218 7.0
2017-Aug-03 15:22N 34°48' E 139°18'819.3
2017-Aug-03 14:57N 34°53' E 139°25'1718.1
2017-Aug-03 14:01N 35°05' E 139°40'816.7
2017-Aug-03 13:30N 35°12' E 139°46'612.0
2017-Aug-03 13:00N 35°18' E 139°44'613.0
2017-Aug-03 12:30N 35°23' E 139°41'1 2.7
2017-Aug-03 12:00N 35°23' E 139°39'0 0.0
2017-Aug-03 11:30N 35°23' E 139°39'0 0.0
2017-Aug-03 11:00N 35°23' E 139°39'0 0.0
2017-Aug-03 10:30N 35°23' E 139°39'0 0.0
2017-Aug-03 10:00N 35°23' E 139°39'0 0.0
2017-Aug-03 09:30N 35°23' E 139°39'0 0.0
2017-Aug-03 09:00N 35°23' E 139°39'0 0.0
2017-Aug-03 08:30N 35°23' E 139°39'0 0.0
2017-Aug-03 08:00N 35°23' E 139°39'0 0.0
2017-Aug-03 07:30N 35°23' E 139°39'1 2.7
2017-Aug-03 07:00N 35°23' E 139°41'918.3
2017-Aug-03 06:31N 35°28' E 139°50'1019.4
2017-Aug-03 06:01N 35°34' E 139°60'  
Track history (hours):
 
Tides and Currents Weather Stations Pressure Air Temp Water Temp Dewpoint Dewpoint Depression Visibility Wind Speed Wind Dir Waves Ship Positions

Toyofukumaru

Last reported at 2017-Aug-12 23:46 UTC. Time now 2017-Aug-17 23:21 UTC.
Position N 34°33' E 134°45'.

Length 165 m; draft 6.2 m.

Type: Cargo ship. MMSI: 431200688.

Date/timePositionNaut miles runAvg speedWind from/ knotsBaromVisibWave heightAir tempDewpointWater temp
2017-Aug-12 23:46N 34°33' E 134°45'520.8
2017-Aug-12 23:30N 34°35' E 134°51'816.2
2017-Aug-12 23:00N 34°38' E 135°01'611.9
2017-Aug-12 22:30N 34°33' E 135°05'1020.1
2017-Aug-12 22:00N 34°23' E 135°01'918.4
2017-Aug-12 21:30N 34°14' E 134°59'918.7
2017-Aug-12 21:00N 34°05' E 134°60'216 7.3
2017-Aug-11 15:23N 34°46' E 139°17'821.0
2017-Aug-11 15:00N 34°52' E 139°23'2120.8
2017-Aug-11 14:01N 35°06' E 139°42'816.7
2017-Aug-11 13:31N 35°13' E 139°46'713.3
2017-Aug-11 13:00N 35°19' E 139°43'510.4
2017-Aug-11 12:30N 35°23' E 139°39'0 0.0
2017-Aug-11 11:58N 35°23' E 139°39'0 0.0
2017-Aug-11 11:28N 35°23' E 139°39'0 0.0
2017-Aug-11 10:58N 35°23' E 139°39'0 0.0
2017-Aug-11 10:28N 35°23' E 139°39'0 0.0
2017-Aug-11 09:58N 35°23' E 139°39'0 0.0
2017-Aug-11 09:28N 35°23' E 139°39'0 0.0
2017-Aug-11 08:58N 35°23' E 139°39'0 0.0
2017-Aug-11 08:28N 35°23' E 139°39'0 0.0
2017-Aug-11 07:58N 35°23' E 139°39'0 0.0
2017-Aug-11 07:28N 35°23' E 139°39'0 0.0
2017-Aug-11 06:58N 35°23' E 139°39'0 0.0
2017-Aug-11 06:28N 35°23' E 139°39'0 0.0
2017-Aug-11 05:58N 35°23' E 139°39'0 0.0
2017-Aug-11 05:28N 35°23' E 139°39'0 0.0
2017-Aug-11 05:00N 35°23' E 139°39'3 6.3
2017-Aug-11 04:30N 35°24' E 139°43'1020.1
2017-Aug-11 04:00N 35°30' E 139°52'918.6
2017-Aug-11 03:30N 35°35' E 140°03'3 0.4
2017-Aug-10 20:49N 35°36' E 140°05'0 0.0
2017-Aug-10 20:25N 35°36' E 140°05'2 5.2
2017-Aug-10 20:00N 35°35' E 140°03'1019.4
2017-Aug-10 19:30N 35°30' E 139°53'816.1
2017-Aug-10 19:01N 35°24' E 139°46'612.3
2017-Aug-10 18:31N 35°18' E 139°45'612.2
2017-Aug-10 18:00N 35°12' E 139°47'918.1
2017-Aug-10 17:30N 35°05' E 139°40'1019.7
2017-Aug-10 17:00N 34°58' E 139°31'233 7.1
2017-Aug-09 08:22N 33°48' E 135°02'718.5
2017-Aug-09 08:00N 33°54' E 134°59'919.3
2017-Aug-09 07:30N 34°03' E 134°58'1020.7
2017-Aug-09 07:00N 34°14' E 134°58'1020.5
2017-Aug-09 06:30N 34°24' E 134°60'1020.3
2017-Aug-09 06:00N 34°34' E 135°03'917.6
2017-Aug-09 05:30N 34°34' E 134°52'  
2017-Aug-05 00:59N 34°36' E 134°54'816.5
2017-Aug-05 00:30N 34°36' E 135°03'918.1
2017-Aug-05 00:00N 34°27' E 135°03'1020.1
2017-Aug-04 23:30N 34°17' E 134°59'1020.0
2017-Aug-04 23:00N 34°08' E 135°00'1019.7
2017-Aug-04 22:29N 33°57' E 135°01'218 7.0
2017-Aug-03 15:22N 34°48' E 139°18'819.3
2017-Aug-03 14:57N 34°53' E 139°25'1718.1
2017-Aug-03 14:01N 35°05' E 139°40'816.7
2017-Aug-03 13:30N 35°12' E 139°46'612.0
2017-Aug-03 13:00N 35°18' E 139°44'613.0
2017-Aug-03 12:30N 35°23' E 139°41'1 2.7
2017-Aug-03 12:00N 35°23' E 139°39'0 0.0
2017-Aug-03 11:30N 35°23' E 139°39'0 0.0
2017-Aug-03 11:00N 35°23' E 139°39'0 0.0
2017-Aug-03 10:30N 35°23' E 139°39'0 0.0
2017-Aug-03 10:00N 35°23' E 139°39'0 0.0
2017-Aug-03 09:30N 35°23' E 139°39'0 0.0
2017-Aug-03 09:00N 35°23' E 139°39'0 0.0
2017-Aug-03 08:30N 35°23' E 139°39'0 0.0
2017-Aug-03 08:00N 35°23' E 139°39'0 0.0
2017-Aug-03 07:30N 35°23' E 139°39'1 2.7
2017-Aug-03 07:00N 35°23' E 139°41'918.3
2017-Aug-03 06:31N 35°28' E 139°50'1019.4
2017-Aug-03 06:01N 35°34' E 139°60'  

Dump ship's entire track history